Destin, FL (32540)

5:03 AM CST on January 21, 2017 (GMT -0600)
Destin Water Users | | Change Station
Active Advisory: Tornado Watch

Elev 26 ft 30.39 °N, 86.48 °W | Updated 19 seconds ago

Scattered Clouds
Scattered Clouds
72.2 °F
Feels Like 71 °F
N
8.4
Wind Variable Wind from SSE
Gusts 14.0 mph

Today
High -- | Low -- °F
--% Chance of Precip.
Yesterday
High -- | Low -- °F
Precip. -- in
Pressure 29.74 in
Visibility 10.0 miles
Clouds Few 800 ft
Scattered Clouds 1300 ft
Heat Index 71 °F
Dew Point 68 °F
Humidity 86%
Rainfall 0.00 in
Snow Depth Not available.
6:41 AM 5:13 PM
Waning Crescent, 36% visible
METAR KDTS 211053Z AUTO 17010G20KT 10SM FEW008 SCT013 23/23 A2974 RMK AO2 SLP069 T02330233
Pressure 29.74 in
Visibility 10.0 miles
Clouds Few 800 ft
Scattered Clouds 1300 ft
Heat Index 71 °F
Dew Point 68 °F
Humidity 86%
Rainfall 0.00 in
Snow Depth Not available.
6:41 AM 5:13 PM
Waning Crescent, 36% visible
METAR KDTS 211053Z AUTO 17010G20KT 10SM FEW008 SCT013 23/23 A2974 RMK AO2 SLP069 T02330233

Get Your Daily Forecast Email!

Thanks for signing up!

Be on the lookout for a verification email in your inbox.

You'll start receiving the daily forecast at 8 AM.

×

10-Day Weather Forecast

Almanac

Astronomy

Jan. 21, 2017 Rise Set
Actual Time
Civil Twilight
Nautical Twilight
Astronomical Twilight
Moon
Length of Visible Light
Length of Day
Tomorrow will be .
, % of the Moon is Illuminated

Today's Extremes

State Highs State Lows

Community

WunderPhotos

Upload Photos

1,962,540 photos uploaded!

WunderBlog® & News

Nearby

Air Quality

  Air Quality AQ Index Pollutant
Not available.

Snow Depth

Station Depth Elevation

Earthquake Activity

City Distance Mag. Time & Date
Minimum magnitude displayed is 2.5.

Coastal Water Temperatures

Place Temperature

Stations

Nearby Weather Stations

Station Location Temp. Windchill Dew Point Humidity Wind Precip. Elev Updated Type
                   

Watches & Warnings

Tornado Watch
Issued: 4:43 AM CST Jan. 21, 2017 – National Weather Service

Tornado Watch 11 remains in effect until 1100 am CST for the
following locations

CW

. adjacent coastal waters included are

North Mobile Bay

South Mobile Bay

Mississippi Sound

Perdido Bay area

Pensacola Bay area

Choctawhatchee Bay

Coastal waters from Pensacola FL to Pascagoula MS out 20 nm

Coastal waters from Destin to Pensacola FL out 20 nm